Time;durP1;ratioP1;P1;durP2;ratioP2;P2;SDS_P1;SDS_P2;PMS_P1;PMS_P2;Temp;Humidity;BMP_temperature;BMP_pressure;BME280_temperature;BME280_humidity;BME280_pressure;Samples;Min_cycle;Max_cycle;Signal;HPM_P1;HPM_P2
2021/09/18 00:01:10;;;;;;;5.27;4.10;;;15.10;98.30;;;;;;5175405;23;20439;-81
2021/09/18 00:03:13;;;;;;;3.93;3.43;;;15.10;98.30;;;;;;5166556;23;20439;-82
2021/09/18 00:05:17;;;;;;;5.43;3.87;;;15.00;98.30;;;;;;5167251;23;20859;-82
2021/09/18 00:07:19;;;;;;;5.93;3.67;;;15.00;98.30;;;;;;5167036;23;20435;-82
2021/09/18 00:09:22;;;;;;;5.13;3.83;;;15.00;98.30;;;;;;5174748;23;20423;-81
2021/09/18 00:11:25;;;;;;;5.80;3.90;;;15.00;98.30;;;;;;5175237;23;21282;-81
2021/09/18 00:13:31;;;;;;;4.40;3.97;;;15.00;98.30;;;;;;5166946;23;20424;-81
2021/09/18 00:15:34;;;;;;;5.43;4.30;;;15.00;98.30;;;;;;5167100;23;20414;-82
2021/09/18 00:17:37;;;;;;;4.60;3.97;;;15.00;98.30;;;;;;5166705;23;20428;-80
2021/09/18 00:19:40;;;;;;;5.80;4.00;;;15.00;98.30;;;;;;5175107;23;20443;-82
2021/09/18 00:21:43;;;;;;;5.00;4.20;;;15.10;98.30;;;;;;5166993;23;20448;-82
2021/09/18 00:23:46;;;;;;;4.83;4.43;;;15.10;98.30;;;;;;5175319;23;21002;-83
2021/09/18 00:25:49;;;;;;;5.90;4.30;;;15.10;98.30;;;;;;5168174;23;20423;-82
2021/09/18 00:27:52;;;;;;;5.30;4.33;;;15.10;98.30;;;;;;5168775;23;20494;-82
2021/09/18 00:29:56;;;;;;;5.17;4.67;;;15.10;98.30;;;;;;5168713;23;20469;-82
2021/09/18 00:31:59;;;;;;;5.20;4.07;;;15.00;98.30;;;;;;5168265;23;20502;-81
2021/09/18 00:34:02;;;;;;;7.40;4.87;;;15.10;98.30;;;;;;5169057;23;20430;-81
2021/09/18 00:36:05;;;;;;;6.13;4.40;;;15.00;98.30;;;;;;5168871;23;20435;-81
2021/09/18 00:38:08;;;;;;;4.77;4.27;;;15.00;98.30;;;;;;5167945;23;20489;-82
2021/09/18 00:40:12;;;;;;;6.67;5.00;;;15.00;98.30;;;;;;5169308;23;20434;-81
2021/09/18 00:42:14;;;;;;;5.83;4.90;;;15.00;98.30;;;;;;5170651;23;20451;-82
2021/09/18 00:44:19;;;;;;;6.40;4.90;;;15.00;98.30;;;;;;5177159;23;20439;-81
2021/09/18 00:46:24;;;;;;;5.80;5.20;;;15.00;98.30;;;;;;5177177;23;20424;-81
2021/09/18 00:48:27;;;;;;;6.77;6.07;;;15.00;98.30;;;;;;5168672;23;20416;-82
2021/09/18 00:50:31;;;;;;;5.40;4.90;;;15.00;98.30;;;;;;5168453;23;20489;-82
2021/09/18 00:52:34;;;;;;;5.70;5.10;;;15.00;98.30;;;;;;5168260;23;20432;-82
2021/09/18 00:54:37;;;;;;;7.33;5.60;;;15.00;98.30;;;;;;5168800;23;20419;-82
2021/09/18 00:56:41;;;;;;;7.23;5.10;;;15.00;98.30;;;;;;5168803;23;20435;-82
2021/09/18 00:58:44;;;;;;;6.70;5.57;;;15.00;98.30;;;;;;5168368;23;20913;-82
2021/09/18 01:00:47;;;;;;;7.90;5.53;;;15.00;98.30;;;;;;5168446;23;20453;-81
2021/09/18 01:02:51;;;;;;;7.60;5.90;;;15.00;98.30;;;;;;5168401;23;20523;-83
2021/09/18 01:04:54;;;;;;;8.30;5.90;;;15.00;98.30;;;;;;5168472;23;20478;-81
2021/09/18 01:06:57;;;;;;;10.83;7.23;;;15.10;98.30;;;;;;5168808;23;20431;-81
2021/09/18 01:09:01;;;;;;;6.17;5.57;;;15.10;98.30;;;;;;5167906;23;20427;-82
2021/09/18 01:11:04;;;;;;;7.67;6.40;;;15.10;98.30;;;;;;5168322;23;20538;-81
2021/09/18 01:13:09;;;;;;;6.53;5.80;;;15.10;98.30;;;;;;5168551;23;20484;-82
2021/09/18 01:15:14;;;;;;;8.37;5.60;;;15.10;98.30;;;;;;5167875;23;20426;-82
2021/09/18 01:17:17;;;;;;;7.50;6.03;;;15.10;98.30;;;;;;5176509;23;20503;-81
2021/09/18 01:19:21;;;;;;;7.50;5.87;;;15.10;98.30;;;;;;5168007;23;20837;-82
2021/09/18 01:21:24;;;;;;;6.80;6.10;;;15.10;98.30;;;;;;5167676;23;20987;-82
2021/09/18 01:23:28;;;;;;;8.23;7.37;;;15.10;98.30;;;;;;5168351;23;20459;-81
2021/09/18 01:25:34;;;;;;;7.67;5.53;;;15.10;98.30;;;;;;5168419;23;20455;-83
2021/09/18 01:27:37;;;;;;;8.87;6.20;;;15.10;98.30;;;;;;5168434;23;20431;-82
2021/09/18 01:29:39;;;;;;;7.83;5.97;;;15.20;98.30;;;;;;5167660;23;20463;-81
2021/09/18 01:31:45;;;;;;;6.87;5.43;;;15.20;98.30;;;;;;5177048;23;20454;-82
2021/09/18 01:33:50;;;;;;;7.40;5.93;;;15.30;98.30;;;;;;5176804;23;20952;-82
2021/09/18 01:35:53;;;;;;;6.60;5.83;;;15.30;98.30;;;;;;5167939;23;20436;-83
2021/09/18 01:37:56;;;;;;;11.20;6.20;;;15.30;98.30;;;;;;5175928;23;20442;-82
2021/09/18 01:40:00;;;;;;;7.47;6.07;;;15.30;98.30;;;;;;5168539;23;20428;-82
2021/09/18 01:42:04;;;;;;;7.70;6.30;;;15.20;98.30;;;;;;5176819;23;20448;-83
2021/09/18 01:44:06;;;;;;;8.27;6.00;;;15.20;98.30;;;;;;5176779;23;20461;-81
2021/09/18 01:46:09;;;;;;;9.57;6.30;;;15.20;98.30;;;;;;5171297;23;20463;-81
2021/09/18 01:48:14;;;;;;;7.93;6.57;;;15.20;98.30;;;;;;5169256;23;20822;-81
2021/09/18 01:50:26;;;;;;;6.63;5.93;;;15.30;98.30;;;;;;5169821;23;20921;-83
2021/09/18 01:52:34;;;;;;;8.13;6.23;;;15.30;98.30;;;;;;5177950;23;20431;-81
2021/09/18 01:54:37;;;;;;;8.10;6.27;;;15.40;98.30;;;;;;5177807;23;20934;-82
2021/09/18 01:56:41;;;;;;;9.60;6.53;;;15.40;98.30;;;;;;5168238;23;21000;-83
2021/09/18 01:58:44;;;;;;;7.90;7.10;;;15.40;98.30;;;;;;5175919;23;20417;-80
2021/09/18 02:00:49;;;;;;;7.83;6.83;;;15.40;98.30;;;;;;5167537;23;20487;-82
2021/09/18 02:02:53;;;;;;;7.10;6.40;;;15.40;98.30;;;;;;5176926;23;20474;-81
2021/09/18 02:04:56;;;;;;;9.10;7.20;;;15.40;98.30;;;;;;5167246;23;20793;-81
2021/09/18 02:06:59;;;;;;;7.53;6.73;;;15.30;98.30;;;;;;5167752;23;20427;-81
2021/09/18 02:09:02;;;;;;;10.10;7.80;;;15.30;98.30;;;;;;5167104;23;20515;-82
2021/09/18 02:11:06;;;;;;;8.43;7.33;;;15.20;98.30;;;;;;5175431;23;20945;-82
2021/09/18 02:13:12;;;;;;;10.70;7.77;;;15.20;98.30;;;;;;5167351;23;20412;-82
2021/09/18 02:15:16;;;;;;;10.70;7.73;;;15.30;98.30;;;;;;5174412;23;20408;-81
2021/09/18 02:17:19;;;;;;;9.70;7.90;;;15.30;98.30;;;;;;5175169;23;20430;-82
2021/09/18 02:19:22;;;;;;;9.13;7.50;;;15.20;98.30;;;;;;5166742;23;20510;-80
2021/09/18 02:21:25;;;;;;;10.23;8.00;;;15.20;98.30;;;;;;5175005;23;20444;-82
2021/09/18 02:23:28;;;;;;;12.13;8.10;;;15.10;98.30;;;;;;5175281;23;20430;-81
2021/09/18 02:25:31;;;;;;;9.40;8.20;;;15.10;98.30;;;;;;5167140;23;20448;-81
2021/09/18 02:27:34;;;;;;;10.00;7.67;;;15.10;98.30;;;;;;5166877;23;20424;-81
2021/09/18 02:29:38;;;;;;;9.60;7.50;;;15.10;98.30;;;;;;5166922;23;20434;-81
2021/09/18 02:31:41;;;;;;;9.00;7.90;;;15.20;98.30;;;;;;5175858;23;20932;-81
2021/09/18 02:33:44;;;;;;;10.50;8.10;;;15.30;98.30;;;;;;5175117;23;20909;-82
2021/09/18 02:35:47;;;;;;;12.57;7.77;;;15.30;98.30;;;;;;5166738;23;20504;-82
2021/09/18 02:37:52;;;;;;;9.27;7.70;;;15.30;98.30;;;;;;5166502;23;20474;-80
2021/09/18 02:39:55;;;;;;;8.43;7.53;;;15.40;98.30;;;;;;5167061;23;20439;-82
2021/09/18 02:41:59;;;;;;;8.50;7.50;;;15.40;98.30;;;;;;5175601;23;20827;-80
2021/09/18 02:44:02;;;;;;;8.90;7.60;;;15.30;98.30;;;;;;5167267;23;20447;-80
2021/09/18 02:46:06;;;;;;;9.80;8.27;;;15.30;98.30;;;;;;5167010;23;20440;-82
2021/09/18 02:48:09;;;;;;;8.90;8.00;;;15.30;98.30;;;;;;5174232;23;20503;-82
2021/09/18 02:50:14;;;;;;;8.27;7.40;;;15.30;98.30;;;;;;5168424;23;20434;-81
2021/09/18 02:52:17;;;;;;;10.70;7.90;;;15.30;98.30;;;;;;5167013;23;20440;-82
2021/09/18 02:54:20;;;;;;;8.57;7.67;;;15.30;98.30;;;;;;5175139;23;20463;-81
2021/09/18 02:56:23;;;;;;;10.23;7.30;;;15.30;98.30;;;;;;5167008;23;20463;-80
2021/09/18 02:58:26;;;;;;;8.30;6.97;;;15.30;98.30;;;;;;5166245;23;21047;-80
2021/09/18 03:00:29;;;;;;;10.40;7.60;;;15.20;98.30;;;;;;5165996;23;20428;-80
2021/09/18 03:02:34;;;;;;;11.70;7.80;;;15.20;98.30;;;;;;5175678;23;20444;-82
2021/09/18 03:04:38;;;;;;;8.80;7.50;;;15.20;98.30;;;;;;5166687;23;20436;-80
2021/09/18 03:06:41;;;;;;;8.40;7.10;;;15.20;98.30;;;;;;5175035;23;20427;-82
2021/09/18 03:08:44;;;;;;;9.47;7.00;;;15.30;98.30;;;;;;5165293;23;20428;-81
2021/09/18 03:10:47;;;;;;;7.50;6.70;;;15.30;98.30;;;;;;5120096;23;1052270;-81
2021/09/18 03:12:49;;;;;;;7.57;6.80;;;15.40;98.30;;;;;;5166650;23;20414;-82
2021/09/18 03:14:52;;;;;;;7.77;6.23;;;15.40;98.30;;;;;;5167414;23;20420;-81
2021/09/18 03:16:55;;;;;;;7.67;6.87;;;15.40;98.30;;;;;;5167268;23;20420;-81
2021/09/18 03:18:59;;;;;;;7.27;6.37;;;15.50;98.30;;;;;;5175920;23;20988;-82
2021/09/18 03:21:03;;;;;;;8.90;6.83;;;15.60;98.30;;;;;;5175964;23;20459;-82
2021/09/18 03:23:08;;;;;;;8.73;6.63;;;15.50;98.30;;;;;;5176013;23;20750;-81
2021/09/18 03:25:11;;;;;;;8.27;7.20;;;15.50;98.30;;;;;;5175678;23;20443;-81
2021/09/18 03:27:15;;;;;;;8.03;7.20;;;15.50;98.30;;;;;;5167659;23;20466;-81
2021/09/18 03:29:18;;;;;;;8.17;7.37;;;15.50;98.30;;;;;;5175445;23;20905;-81
2021/09/18 03:31:20;;;;;;;8.93;6.40;;;15.50;98.30;;;;;;5174539;23;20447;-81
2021/09/18 03:33:23;;;;;;;8.10;6.87;;;15.50;98.30;;;;;;5167906;23;20898;-81
2021/09/18 03:35:28;;;;;;;10.40;6.97;;;15.50;98.30;;;;;;5167995;23;20428;-82
2021/09/18 03:37:34;;;;;;;7.73;6.83;;;15.50;98.30;;;;;;5176556;23;20744;-81
2021/09/18 03:39:37;;;;;;;8.63;6.73;;;15.50;98.30;;;;;;5167771;23;20503;-81
2021/09/18 03:41:39;;;;;;;8.80;7.33;;;15.50;98.30;;;;;;5167674;23;20531;-81
2021/09/18 03:43:42;;;;;;;7.57;6.60;;;15.50;98.30;;;;;;5167609;23;20424;-81
2021/09/18 03:45:46;;;;;;;9.00;7.20;;;15.50;98.30;;;;;;5167481;23;20447;-80
2021/09/18 03:47:48;;;;;;;8.50;7.10;;;15.50;98.30;;;;;;5176473;23;20423;-81
2021/09/18 03:49:54;;;;;;;9.50;7.10;;;15.50;98.30;;;;;;5167649;23;20432;-81
2021/09/18 03:51:59;;;;;;;7.93;6.80;;;15.60;98.30;;;;;;5168623;23;20452;-82
2021/09/18 03:54:01;;;;;;;7.37;6.67;;;15.60;98.30;;;;;;5169697;23;20767;-82
2021/09/18 03:56:06;;;;;;;7.27;6.53;;;15.60;98.30;;;;;;5172247;23;20428;-82
2021/09/18 03:58:09;;;;;;;8.53;6.70;;;15.60;98.30;;;;;;5171921;23;20431;-82
2021/09/18 04:00:13;;;;;;;7.70;6.50;;;15.60;98.30;;;;;;5180346;23;20502;-81
2021/09/18 04:02:16;;;;;;;8.23;7.03;;;15.60;98.30;;;;;;5181259;23;20443;-80
2021/09/18 04:04:19;;;;;;;8.90;6.60;;;15.60;98.30;;;;;;5183126;23;20419;-82
2021/09/18 04:06:22;;;;;;;8.70;7.60;;;15.60;98.30;;;;;;5174299;23;20829;-81
2021/09/18 04:08:26;;;;;;;8.43;6.30;;;15.60;98.30;;;;;;5172532;23;21026;-81
2021/09/18 04:10:29;;;;;;;9.23;7.00;;;15.60;98.30;;;;;;5173375;23;20447;-81
2021/09/18 04:12:32;;;;;;;9.70;7.13;;;15.60;98.30;;;;;;5173589;23;20442;-81
2021/09/18 04:14:36;;;;;;;10.23;7.53;;;15.60;98.30;;;;;;5180328;23;20454;-82
2021/09/18 04:16:38;;;;;;;10.00;7.30;;;15.60;98.30;;;;;;5173996;23;20444;-81
2021/09/18 04:18:41;;;;;;;9.03;6.67;;;15.60;98.30;;;;;;5182128;23;20633;-82
2021/09/18 04:20:44;;;;;;;8.70;7.80;;;15.60;98.30;;;;;;5182890;23;20442;-82
2021/09/18 04:22:47;;;;;;;12.10;7.90;;;15.60;98.30;;;;;;5183016;23;20424;-82
2021/09/18 04:24:52;;;;;;;10.10;7.33;;;15.60;98.30;;;;;;5183795;23;20423;-81
2021/09/18 04:26:55;;;;;;;7.77;7.00;;;15.70;98.30;;;;;;5182512;23;20442;-82
2021/09/18 04:28:58;;;;;;;8.23;6.80;;;15.60;98.30;;;;;;5174420;23;20462;-82
2021/09/18 04:31:01;;;;;;;8.47;6.27;;;15.60;98.30;;;;;;5182729;23;20471;-81
2021/09/18 04:33:04;;;;;;;8.83;6.73;;;15.60;98.30;;;;;;5173050;23;20512;-81
2021/09/18 04:35:07;;;;;;;10.00;6.73;;;15.60;98.30;;;;;;5180925;23;20455;-81
2021/09/18 04:37:10;;;;;;;9.37;6.90;;;15.60;98.30;;;;;;5172948;23;20487;-81
2021/09/18 04:39:14;;;;;;;7.03;6.33;;;15.60;98.30;;;;;;5173530;23;20757;-81
2021/09/18 04:41:18;;;;;;;8.30;6.80;;;15.60;98.30;;;;;;5174014;23;20455;-82
2021/09/18 04:43:21;;;;;;;6.80;6.10;;;15.60;98.30;;;;;;5174713;23;20833;-81
2021/09/18 04:45:24;;;;;;;9.07;7.13;;;15.70;98.30;;;;;;5174770;23;20932;-81
2021/09/18 04:47:27;;;;;;;7.57;6.77;;;15.70;98.30;;;;;;5174864;23;20934;-81
2021/09/18 04:49:30;;;;;;;7.50;6.80;;;15.70;98.30;;;;;;5173954;23;20428;-82
2021/09/18 04:51:33;;;;;;;9.03;7.00;;;15.70;98.30;;;;;;5175811;23;20455;-81
2021/09/18 04:53:36;;;;;;;6.73;6.03;;;15.60;98.30;;;;;;5175871;23;20451;-82
2021/09/18 04:55:39;;;;;;;9.83;7.23;;;15.60;98.30;;;;;;5178301;23;20455;-81
2021/09/18 04:57:43;;;;;;;7.80;7.00;;;15.60;98.30;;;;;;5177973;22;20437;-82
2021/09/18 04:59:46;;;;;;;7.13;6.40;;;15.60;98.30;;;;;;5174096;23;20434;-81
2021/09/18 05:01:49;;;;;;;7.60;6.40;;;15.60;98.30;;;;;;5182547;23;20436;-81
2021/09/18 05:03:54;;;;;;;7.13;6.43;;;15.60;98.30;;;;;;5173093;23;20446;-83
2021/09/18 05:05:57;;;;;;;7.87;6.70;;;15.60;98.30;;;;;;5172878;23;20470;-81
2021/09/18 05:08:00;;;;;;;7.40;5.83;;;15.60;98.30;;;;;;5172499;23;20428;-81
2021/09/18 05:10:05;;;;;;;6.90;6.00;;;15.60;98.30;;;;;;5180289;23;20499;-81
2021/09/18 05:17:21;;;;;;;7.93;6.80;;;15.70;98.30;;;;;;5167459;22;20526;-84
2021/09/18 05:19:57;;;;;;;7.77;5.40;;;15.70;98.30;;;;;;5160369;23;21068;-84
2021/09/18 05:27:58;;;;;;;7.00;5.63;;;15.70;98.30;;;;;;5166862;23;20428;-84
2021/09/18 05:30:36;;;;;;;7.70;6.50;;;15.70;98.30;;;;;;5164980;23;20495;-84
2021/09/18 05:33:07;;;;;;;12.00;5.93;;;15.70;98.30;;;;;;5176002;23;20401;-84
2021/09/18 05:44:15;;;;;;;6.77;5.43;;;15.80;98.30;;;;;;5151795;23;20913;-84
2021/09/18 17:18:15;;;;;;;10.63;7.63;;;17.30;98.30;;;;;;5172535;22;20467;-80
2021/09/18 17:20:18;;;;;;;9.67;6.97;;;17.30;98.30;;;;;;5178629;23;20420;-83
2021/09/18 17:22:21;;;;;;;7.57;5.40;;;17.30;98.30;;;;;;5178582;23;20488;-83
2021/09/18 17:24:48;;;;;;;9.50;6.27;;;17.20;98.30;;;;;;5177562;23;20416;-84
2021/09/18 17:26:51;;;;;;;9.73;5.57;;;17.30;98.30;;;;;;5186523;23;20439;-83
2021/09/18 17:28:53;;;;;;;8.17;5.57;;;17.30;98.30;;;;;;5185181;23;20531;-83
2021/09/18 17:30:57;;;;;;;8.10;6.00;;;17.20;98.30;;;;;;5185852;23;20476;-83
2021/09/18 17:33:25;;;;;;;6.13;5.37;;;17.10;98.30;;;;;;5173746;23;20419;-83
2021/09/18 17:35:53;;;;;;;8.93;5.43;;;17.00;98.30;;;;;;5183813;23;20447;-83
2021/09/18 17:37:56;;;;;;;9.23;5.70;;;17.10;98.30;;;;;;5182572;23;20439;-83
2021/09/18 17:39:59;;;;;;;7.17;5.20;;;17.10;98.30;;;;;;5180574;23;20502;-82
2021/09/18 17:42:02;;;;;;;5.37;4.83;;;17.00;98.30;;;;;;5180385;23;20426;-83
2021/09/18 17:44:30;;;;;;;6.97;6.03;;;16.90;98.30;;;;;;5171814;23;20499;-83
2021/09/18 17:46:57;;;;;;;8.60;5.50;;;16.90;98.30;;;;;;5179901;23;20439;-82
2021/09/18 17:49:01;;;;;;;5.80;4.83;;;16.90;98.30;;;;;;5185281;23;20435;-83
2021/09/18 17:51:28;;;;;;;6.60;5.10;;;16.80;98.30;;;;;;5174977;23;21146;-83
2021/09/18 17:53:55;;;;;;;6.10;5.33;;;16.80;98.30;;;;;;5175875;23;20479;-83
2021/09/18 17:55:58;;;;;;;7.80;5.37;;;16.80;98.30;;;;;;5175510;23;20446;-82
2021/09/18 17:58:01;;;;;;;6.83;5.13;;;16.90;98.30;;;;;;5174177;23;20513;-82
2021/09/18 18:00:05;;;;;;;6.70;5.10;;;16.90;98.30;;;;;;5174227;23;20435;-82
2021/09/18 18:02:08;;;;;;;7.30;6.00;;;16.80;98.30;;;;;;5173898;23;20519;-82
2021/09/18 18:04:15;;;;;;;11.50;5.47;;;16.90;98.30;;;;;;5174382;23;20428;-82
2021/09/18 18:06:17;;;;;;;6.53;5.57;;;16.80;98.30;;;;;;5181493;23;20434;-81
2021/09/18 18:08:20;;;;;;;7.43;5.10;;;16.80;98.30;;;;;;5174131;23;20455;-81
2021/09/18 18:10:24;;;;;;;6.70;5.90;;;16.70;98.30;;;;;;5182119;23;20841;-82
2021/09/18 18:12:27;;;;;;;7.83;5.20;;;16.70;98.30;;;;;;5174186;23;20448;-82
2021/09/18 18:14:29;;;;;;;5.90;5.00;;;16.70;98.30;;;;;;5174387;23;20439;-82
2021/09/18 18:16:32;;;;;;;6.13;5.23;;;16.70;98.30;;;;;;5179823;23;20457;-82
2021/09/18 18:18:35;;;;;;;10.07;5.63;;;16.70;98.30;;;;;;5169509;23;20444;-82
2021/09/18 18:20:40;;;;;;;8.03;5.60;;;16.70;98.30;;;;;;5179580;23;20423;-82
2021/09/18 18:22:43;;;;;;;8.40;6.00;;;16.70;98.30;;;;;;5171482;23;20490;-82
2021/09/18 18:24:46;;;;;;;9.60;6.50;;;16.50;98.30;;;;;;5171694;23;20438;-81
2021/09/18 18:26:49;;;;;;;9.13;7.10;;;16.40;98.30;;;;;;5172844;23;20487;-82
2021/09/18 18:28:51;;;;;;;8.80;5.97;;;16.40;98.30;;;;;;5181095;23;21093;-82
2021/09/18 18:30:54;;;;;;;9.90;6.20;;;16.50;98.30;;;;;;5172153;23;20917;-81
2021/09/18 18:32:57;;;;;;;9.07;6.87;;;16.50;98.30;;;;;;5182962;23;20451;-81
2021/09/18 18:35:01;;;;;;;6.70;6.00;;;16.40;98.30;;;;;;5171186;23;20436;-82
2021/09/18 18:37:05;;;;;;;9.60;6.33;;;16.40;98.30;;;;;;5182177;23;20723;-82
2021/09/18 18:39:08;;;;;;;6.70;5.90;;;16.40;98.30;;;;;;5180621;23;20432;-82
2021/09/18 18:41:11;;;;;;;10.07;5.70;;;16.30;98.30;;;;;;5171934;23;20434;-81
2021/09/18 18:43:15;;;;;;;13.20;6.33;;;16.20;98.30;;;;;;5172969;23;20830;-82
2021/09/18 18:45:20;;;;;;;8.10;6.20;;;16.10;98.30;;;;;;5172911;23;20486;-81
2021/09/18 18:47:22;;;;;;;7.43;5.77;;;15.90;98.30;;;;;;5180320;23;20423;-82
2021/09/18 18:49:26;;;;;;;7.30;5.53;;;16.00;98.30;;;;;;5178822;23;20527;-81
2021/09/18 18:51:28;;;;;;;8.03;5.70;;;16.00;98.30;;;;;;5178008;23;20428;-81
2021/09/18 18:53:33;;;;;;;13.00;10.20;;;16.10;98.30;;;;;;5171400;23;20428;-81
2021/09/18 18:55:36;;;;;;;8.23;6.23;;;16.10;98.30;;;;;;5171311;23;20423;-81
2021/09/18 18:57:39;;;;;;;10.63;6.20;;;16.20;98.30;;;;;;5171337;23;20497;-82
2021/09/18 18:59:43;;;;;;;10.73;5.90;;;16.00;98.30;;;;;;5179698;23;20432;-82
2021/09/18 19:01:46;;;;;;;5.83;5.23;;;16.00;98.30;;;;;;5172424;23;20947;-82
2021/09/18 19:03:49;;;;;;;9.33;5.23;;;15.90;98.30;;;;;;5171064;23;20427;-81
2021/09/18 19:05:54;;;;;;;10.10;8.10;;;15.90;98.30;;;;;;5179278;23;20427;-81
2021/09/18 19:07:57;;;;;;;5.93;5.23;;;15.90;98.30;;;;;;5179252;23;20773;-81
2021/09/18 19:10:01;;;;;;;6.20;5.00;;;15.80;98.30;;;;;;5179995;23;20512;-82
2021/09/18 19:12:04;;;;;;;6.13;5.43;;;15.70;98.30;;;;;;5180379;23;20504;-81
2021/09/18 19:14:07;;;;;;;6.03;5.27;;;15.70;98.30;;;;;;5172667;23;20433;-81
2021/09/18 19:16:10;;;;;;;7.43;5.57;;;15.60;98.30;;;;;;5182971;23;20427;-82
2021/09/18 19:18:13;;;;;;;5.83;5.13;;;15.70;98.30;;;;;;5179249;23;20444;-82
2021/09/18 19:20:39;;;;;;;8.83;5.80;;;15.70;98.30;;;;;;5172852;23;20404;-81
2021/09/18 19:23:06;;;;;;;6.80;5.87;;;15.60;98.30;;;;;;5172414;23;20427;-81
2021/09/18 19:25:35;;;;;;;6.50;4.70;;;15.60;98.30;;;;;;5173283;23;20472;-82
2021/09/18 19:27:40;;;;;;;8.37;6.07;;;15.50;98.30;;;;;;5174071;23;20424;-81
2021/09/18 19:29:43;;;;;;;6.17;5.10;;;15.50;98.30;;;;;;5180374;23;20420;-81
2021/09/18 19:31:46;;;;;;;8.27;5.70;;;15.50;98.30;;;;;;5171164;23;20432;-82
2021/09/18 19:33:49;;;;;;;7.67;5.73;;;15.40;98.30;;;;;;5179872;23;20462;-81
2021/09/18 19:35:52;;;;;;;7.03;5.20;;;15.40;98.30;;;;;;5173376;23;20434;-81
2021/09/18 19:37:54;;;;;;;11.63;5.90;;;15.50;98.30;;;;;;5172287;23;20482;-81
2021/09/18 19:39:57;;;;;;;10.50;5.57;;;15.40;98.30;;;;;;5173456;23;20927;-81
2021/09/18 19:42:01;;;;;;;7.00;5.47;;;15.30;98.30;;;;;;5182083;23;20424;-81
2021/09/18 19:44:05;;;;;;;7.30;5.43;;;15.30;98.30;;;;;;5181989;23;20788;-81
2021/09/18 19:46:09;;;;;;;7.83;5.70;;;15.20;98.30;;;;;;5173303;23;20432;-81
2021/09/18 19:48:13;;;;;;;6.77;5.23;;;15.20;98.30;;;;;;5180699;23;20779;-81
2021/09/18 19:50:16;;;;;;;8.97;5.90;;;15.10;98.30;;;;;;5170626;23;20435;-81
2021/09/18 19:52:19;;;;;;;7.90;5.70;;;15.10;98.30;;;;;;5171330;23;20428;-81
2021/09/18 19:54:22;;;;;;;9.40;6.13;;;15.00;98.30;;;;;;5170709;23;20428;-81
2021/09/18 19:56:25;;;;;;;7.53;5.73;;;15.00;98.30;;;;;;5174086;23;20446;-81
2021/09/18 19:58:29;;;;;;;6.63;5.40;;;15.10;98.30;;;;;;5172105;23;20511;-80
2021/09/18 20:00:32;;;;;;;9.10;6.60;;;15.00;98.30;;;;;;5181488;23;20420;-80
2021/09/18 20:02:35;;;;;;;11.53;7.27;;;15.00;98.30;;;;;;5172944;23;20442;-80
2021/09/18 20:04:41;;;;;;;9.60;7.30;;;14.90;98.30;;;;;;5170849;23;20491;-80
2021/09/18 20:06:44;;;;;;;11.27;5.63;;;14.80;98.30;;;;;;5180780;23;20424;-80
2021/09/18 20:08:47;;;;;;;7.87;5.77;;;14.90;98.30;;;;;;5171151;23;20451;-81
2021/09/18 20:10:50;;;;;;;6.53;5.17;;;14.80;98.30;;;;;;5179820;23;20906;-80
2021/09/18 20:12:53;;;;;;;8.97;5.87;;;14.70;98.30;;;;;;5179981;23;20459;-80
2021/09/18 20:14:57;;;;;;;14.00;5.40;;;14.60;98.30;;;;;;5171236;23;20432;-81
2021/09/18 20:17:00;;;;;;;7.10;5.63;;;14.60;98.30;;;;;;5179781;23;20424;-80
2021/09/18 20:19:28;;;;;;;8.00;5.03;;;14.60;98.30;;;;;;5168572;23;20519;-81
2021/09/18 20:21:31;;;;;;;7.07;5.37;;;14.60;98.30;;;;;;5177760;23;20824;-81
2021/09/18 20:23:35;;;;;;;10.53;5.33;;;14.60;98.30;;;;;;5178032;23;20420;-80
2021/09/18 20:25:38;;;;;;;7.37;5.63;;;14.60;98.30;;;;;;5180223;23;20971;-80
2021/09/18 20:27:41;;;;;;;7.37;5.70;;;14.40;98.30;;;;;;5179577;23;21133;-80
2021/09/18 20:29:44;;;;;;;10.57;5.57;;;14.40;98.30;;;;;;5177479;23;20467;-80
2021/09/18 20:31:49;;;;;;;7.87;5.90;;;14.40;98.30;;;;;;5177895;23;20448;-80
2021/09/18 20:33:52;;;;;;;6.60;5.10;;;14.40;98.30;;;;;;5178596;23;20462;-80
2021/09/18 20:35:55;;;;;;;12.90;5.73;;;14.40;98.30;;;;;;5179063;23;20419;-80
2021/09/18 20:37:58;;;;;;;7.77;6.17;;;14.40;98.30;;;;;;5170847;23;20447;-81
2021/09/18 20:40:01;;;;;;;7.67;5.43;;;14.60;98.30;;;;;;5173528;23;20424;-80
2021/09/18 20:42:05;;;;;;;9.23;5.47;;;14.60;98.30;;;;;;5173008;23;20511;-80
2021/09/18 20:44:07;;;;;;;11.20;5.70;;;14.60;98.30;;;;;;5182899;23;20745;-80
2021/09/18 20:46:10;;;;;;;6.90;5.10;;;14.70;98.30;;;;;;5173586;23;20929;-80
2021/09/18 20:48:14;;;;;;;9.03;5.63;;;14.60;98.30;;;;;;5181139;23;20444;-80
2021/09/18 20:50:17;;;;;;;8.53;5.80;;;14.70;98.30;;;;;;5182458;23;20439;-80
2021/09/18 20:52:20;;;;;;;9.90;6.23;;;14.60;98.30;;;;;;5182340;23;20439;-80
2021/09/18 20:54:23;;;;;;;7.00;5.13;;;14.70;98.30;;;;;;5179622;23;20424;-80
2021/09/18 20:56:27;;;;;;;14.50;9.83;;;14.60;98.30;;;;;;5168940;23;20800;-80
2021/09/18 20:58:30;;;;;;;14.20;10.27;;;14.50;98.30;;;;;;5168425;23;20447;-79
2021/09/18 21:00:38;;;;;;;21.70;15.37;;;14.50;98.30;;;;;;5167971;23;20420;-79
2021/09/18 21:05:03;;;;;;;8.27;6.47;;;14.70;98.30;;;;;;5176972;23;20869;-79
2021/09/18 21:07:08;;;;;;;8.87;6.20;;;14.70;98.30;;;;;;5168603;23;20481;-79
2021/09/18 21:09:11;;;;;;;7.93;6.17;;;14.70;98.30;;;;;;5167566;23;20483;-79
2021/09/18 21:11:14;;;;;;;7.20;5.87;;;14.70;98.30;;;;;;5167950;23;20435;-79
2021/09/18 21:13:18;;;;;;;8.80;5.87;;;14.70;98.30;;;;;;5169017;23;20428;-80
2021/09/18 21:15:21;;;;;;;8.90;6.57;;;14.70;98.30;;;;;;5170113;23;20424;-80
2021/09/18 21:17:23;;;;;;;10.07;6.30;;;14.80;98.30;;;;;;5170538;23;20459;-79
2021/09/18 21:19:26;;;;;;;9.53;6.73;;;14.80;98.30;;;;;;5169417;23;20539;-80
2021/09/18 21:21:34;;;;;;;7.40;6.13;;;14.80;98.30;;;;;;5177519;23;20423;-79
2021/09/18 21:23:37;;;;;;;8.37;5.63;;;14.80;98.30;;;;;;5178188;23;20422;-80
2021/09/18 21:25:41;;;;;;;6.53;5.03;;;14.80;98.30;;;;;;5169513;23;20424;-80
2021/09/18 21:27:44;;;;;;;7.77;6.97;;;14.90;98.30;;;;;;5169623;23;20424;-79
2021/09/18 21:29:47;;;;;;;9.60;7.60;;;14.90;98.30;;;;;;5168699;23;20459;-79
2021/09/18 21:31:52;;;;;;;9.13;6.33;;;14.90;98.30;;;;;;5168803;23;20440;-79
2021/09/18 21:33:55;;;;;;;8.53;6.70;;;14.80;98.30;;;;;;5176928;23;20511;-80
2021/09/18 21:35:58;;;;;;;8.73;6.10;;;14.80;98.30;;;;;;5176891;23;20447;-79
2021/09/18 21:38:02;;;;;;;7.73;5.70;;;14.80;98.30;;;;;;5168331;23;20519;-80
2021/09/18 21:40:11;;;;;;;8.30;6.30;;;14.70;98.30;;;;;;5175665;23;20442;-80
2021/09/18 21:42:15;;;;;;;5.40;4.60;;;14.70;98.30;;;;;;5168277;23;20440;-79
2021/09/18 21:44:18;;;;;;;5.80;5.00;;;14.60;98.30;;;;;;5167973;23;20428;-80
2021/09/18 21:46:20;;;;;;;8.03;6.23;;;14.50;98.30;;;;;;5176626;23;20430;-80
2021/09/18 21:48:23;;;;;;;8.20;5.70;;;14.60;98.30;;;;;;5176307;23;20494;-79
2021/09/18 21:50:26;;;;;;;7.13;5.27;;;14.50;98.30;;;;;;5168151;23;20444;-79
2021/09/18 21:52:32;;;;;;;8.40;4.90;;;14.60;98.30;;;;;;5168325;23;20933;-79
2021/09/18 21:54:38;;;;;;;6.70;5.40;;;14.60;98.30;;;;;;5176467;23;20443;-79
2021/09/18 21:56:40;;;;;;;7.70;5.70;;;14.50;98.30;;;;;;5168171;23;20423;-79
2021/09/18 21:58:43;;;;;;;9.77;5.67;;;14.40;98.30;;;;;;5168104;23;20448;-79
2021/09/18 22:01:24;;;;;;;6.37;4.97;;;14.40;98.30;;;;;;5168098;23;20446;-79
2021/09/18 22:03:27;;;;;;;7.17;6.00;;;14.40;98.30;;;;;;5106582;23;20424;-80
2021/09/18 22:05:31;;;;;;;8.63;5.60;;;14.40;98.30;;;;;;5168158;23;20459;-79
2021/09/18 22:07:33;;;;;;;9.17;6.70;;;14.30;98.30;;;;;;5168124;23;20780;-79
2021/09/18 22:09:38;;;;;;;8.20;6.63;;;14.30;98.30;;;;;;5167824;23;20996;-79
2021/09/18 22:11:41;;;;;;;10.67;7.07;;;14.40;98.30;;;;;;5168277;23;20424;-79
2021/09/18 22:13:45;;;;;;;8.27;5.90;;;14.40;98.30;;;;;;5167907;23;20428;-79
2021/09/18 22:15:48;;;;;;;10.17;8.10;;;14.40;98.30;;;;;;5166733;23;20731;-79
2021/09/18 22:17:51;;;;;;;9.47;7.40;;;14.30;98.30;;;;;;5175960;23;20467;-79
2021/09/18 22:19:53;;;;;;;7.17;5.23;;;14.20;98.30;;;;;;5168031;23;20428;-79
2021/09/18 22:21:56;;;;;;;11.03;5.70;;;14.20;98.30;;;;;;5167983;23;20428;-79
2021/09/18 22:24:02;;;;;;;7.50;5.20;;;14.20;98.30;;;;;;5168153;23;20435;-79
2021/09/18 22:26:07;;;;;;;7.10;4.50;;;14.30;98.30;;;;;;5168378;23;20419;-79
2021/09/18 22:31:07;;;;;;;6.40;5.07;;;14.20;98.30;;;;;;5168695;23;20443;-81
2021/09/18 22:33:15;;;;;;;28.47;7.00;;;14.30;98.30;;;;;;5178723;23;20487;-82
2021/09/18 22:35:22;;;;;;;6.73;5.10;;;14.30;98.30;;;;;;5170558;23;20535;-82
2021/09/18 22:37:30;;;;;;;7.57;5.10;;;14.30;98.30;;;;;;5179304;23;20427;-83
2021/09/18 22:39:48;;;;;;;7.10;5.30;;;14.30;98.30;;;;;;5177757;23;20436;-81
2021/09/18 22:42:12;;;;;;;6.93;4.23;;;14.30;98.30;;;;;;5170497;23;20481;-81
2021/09/18 22:44:31;;;;;;;8.23;4.67;;;14.20;98.30;;;;;;5169469;23;20477;-81
2021/09/18 22:46:49;;;;;;;6.83;4.50;;;14.10;98.30;;;;;;5170424;23;20804;-81